sensor_id;sensor_type;location;lat;lon;timestamp;pressure;altitude;pressure_sealevel;temperature;humidity
19457;BME280;9867;48.094;11.478;2023-06-14T00:02:06;94739.69;;;12.51;100.00
19457;BME280;9867;48.094;11.478;2023-06-14T00:04:35;94741.59;;;12.25;100.00
19457;BME280;9867;48.094;11.478;2023-06-14T00:07:05;94734.88;;;12.06;100.00
19457;BME280;9867;48.094;11.478;2023-06-14T00:09:34;94733.44;;;12.10;100.00
19457;BME280;9867;48.094;11.478;2023-06-14T00:12:03;94735.59;;;12.13;100.00
19457;BME280;9867;48.094;11.478;2023-06-14T00:14:32;94733.59;;;12.15;100.00
19457;BME280;9867;48.094;11.478;2023-06-14T00:17:00;94736.09;;;12.04;100.00
19457;BME280;9867;48.094;11.478;2023-06-14T00:19:29;94731.75;;;12.04;100.00
19457;BME280;9867;48.094;11.478;2023-06-14T00:21:59;94732.38;;;12.00;100.00
19457;BME280;9867;48.094;11.478;2023-06-14T00:24:29;94727.16;;;12.06;100.00
19457;BME280;9867;48.094;11.478;2023-06-14T00:26:58;94726.59;;;12.04;100.00
19457;BME280;9867;48.094;11.478;2023-06-14T00:29:26;94729.47;;;11.96;100.00
19457;BME280;9867;48.094;11.478;2023-06-14T00:31:54;94728.25;;;11.99;100.00
19457;BME280;9867;48.094;11.478;2023-06-14T00:34:26;94729.81;;;12.00;100.00
19457;BME280;9867;48.094;11.478;2023-06-14T00:36:53;94730.59;;;12.00;100.00
19457;BME280;9867;48.094;11.478;2023-06-14T00:39:22;94731.88;;;11.91;100.00
19457;BME280;9867;48.094;11.478;2023-06-14T00:41:51;94723.16;;;11.92;100.00
19457;BME280;9867;48.094;11.478;2023-06-14T00:44:19;94727.94;;;11.88;100.00
19457;BME280;9867;48.094;11.478;2023-06-14T00:46:48;94726.91;;;11.71;100.00
19457;BME280;9867;48.094;11.478;2023-06-14T00:49:17;94723.34;;;11.54;100.00
19457;BME280;9867;48.094;11.478;2023-06-14T00:51:45;94716.41;;;11.54;100.00
19457;BME280;9867;48.094;11.478;2023-06-14T00:54:13;94728.59;;;11.59;100.00
19457;BME280;9867;48.094;11.478;2023-06-14T00:56:43;94717.88;;;11.44;100.00
19457;BME280;9867;48.094;11.478;2023-06-14T00:59:12;94717.72;;;11.39;100.00
19457;BME280;9867;48.094;11.478;2023-06-14T01:01:42;94724.63;;;11.20;100.00
19457;BME280;9867;48.094;11.478;2023-06-14T01:04:10;94726.94;;;11.28;100.00
19457;BME280;9867;48.094;11.478;2023-06-14T01:06:45;94717.22;;;11.30;100.00
19457;BME280;9867;48.094;11.478;2023-06-14T01:09:23;94721.25;;;11.19;100.00
19457;BME280;9867;48.094;11.478;2023-06-14T01:12:00;94724.44;;;11.15;100.00
19457;BME280;9867;48.094;11.478;2023-06-14T01:14:35;94722.25;;;11.18;100.00
19457;BME280;9867;48.094;11.478;2023-06-14T01:17:04;94730.84;;;11.06;100.00
19457;BME280;9867;48.094;11.478;2023-06-14T01:19:34;94720.84;;;10.98;100.00
19457;BME280;9867;48.094;11.478;2023-06-14T01:22:02;94720.09;;;10.90;100.00
19457;BME280;9867;48.094;11.478;2023-06-14T01:24:32;94721.84;;;10.97;100.00
19457;BME280;9867;48.094;11.478;2023-06-14T01:27:02;94722.94;;;10.82;100.00
19457;BME280;9867;48.094;11.478;2023-06-14T01:29:30;94726.19;;;10.65;100.00
19457;BME280;9867;48.094;11.478;2023-06-14T01:32:00;94724.97;;;10.67;100.00
19457;BME280;9867;48.094;11.478;2023-06-14T01:34:30;94719.16;;;10.85;100.00
19457;BME280;9867;48.094;11.478;2023-06-14T01:37:00;94711.56;;;10.97;100.00
19457;BME280;9867;48.094;11.478;2023-06-14T01:39:31;94717.91;;;11.19;100.00
19457;BME280;9867;48.094;11.478;2023-06-14T01:42:00;94723.78;;;11.26;100.00
19457;BME280;9867;48.094;11.478;2023-06-14T01:44:28;94712.38;;;11.40;100.00
19457;BME280;9867;48.094;11.478;2023-06-14T01:47:00;94714.53;;;11.43;100.00
19457;BME280;9867;48.094;11.478;2023-06-14T01:49:28;94712.69;;;11.50;100.00
19457;BME280;9867;48.094;11.478;2023-06-14T01:51:56;94717.00;;;11.56;100.00
19457;BME280;9867;48.094;11.478;2023-06-14T01:54:24;94718.69;;;11.62;100.00
19457;BME280;9867;48.094;11.478;2023-06-14T01:56:53;94707.13;;;11.53;100.00
19457;BME280;9867;48.094;11.478;2023-06-14T01:59:21;94713.69;;;11.49;100.00
19457;BME280;9867;48.094;11.478;2023-06-14T02:01:49;94717.81;;;11.32;100.00
19457;BME280;9867;48.094;11.478;2023-06-14T02:04:18;94713.41;;;11.14;100.00
19457;BME280;9867;48.094;11.478;2023-06-14T02:06:46;94716.28;;;11.00;100.00
19457;BME280;9867;48.094;11.478;2023-06-14T02:09:14;94708.16;;;11.03;100.00
19457;BME280;9867;48.094;11.478;2023-06-14T02:11:42;94710.16;;;11.01;100.00
19457;BME280;9867;48.094;11.478;2023-06-14T02:14:11;94714.97;;;10.90;100.00
19457;BME280;9867;48.094;11.478;2023-06-14T02:16:39;94710.47;;;10.86;100.00
19457;BME280;9867;48.094;11.478;2023-06-14T02:19:07;94713.28;;;10.78;100.00
19457;BME280;9867;48.094;11.478;2023-06-14T02:21:35;94717.03;;;10.75;100.00
19457;BME280;9867;48.094;11.478;2023-06-14T02:24:05;94713.56;;;10.63;100.00
19457;BME280;9867;48.094;11.478;2023-06-14T02:26:33;94719.16;;;10.53;100.00
19457;BME280;9867;48.094;11.478;2023-06-14T02:29:01;94717.03;;;10.44;100.00
19457;BME280;9867;48.094;11.478;2023-06-14T02:31:30;94713.28;;;10.46;100.00
19457;BME280;9867;48.094;11.478;2023-06-14T02:33:58;94701.22;;;10.47;100.00
19457;BME280;9867;48.094;11.478;2023-06-14T02:36:26;94702.59;;;10.49;100.00
19457;BME280;9867;48.094;11.478;2023-06-14T02:38:54;94708.06;;;10.59;100.00
19457;BME280;9867;48.094;11.478;2023-06-14T02:41:24;94704.16;;;10.57;100.00
19457;BME280;9867;48.094;11.478;2023-06-14T02:43:52;94707.75;;;10.43;100.00
19457;BME280;9867;48.094;11.478;2023-06-14T02:46:22;94713.66;;;10.50;100.00
19457;BME280;9867;48.094;11.478;2023-06-14T02:48:51;94698.81;;;10.58;100.00
19457;BME280;9867;48.094;11.478;2023-06-14T02:51:19;94708.31;;;10.51;100.00
19457;BME280;9867;48.094;11.478;2023-06-14T02:53:47;94703.63;;;10.42;100.00
19457;BME280;9867;48.094;11.478;2023-06-14T02:56:15;94701.94;;;10.29;100.00
19457;BME280;9867;48.094;11.478;2023-06-14T02:58:44;94711.41;;;10.22;100.00
19457;BME280;9867;48.094;11.478;2023-06-14T03:01:12;94710.34;;;9.91;100.00
19457;BME280;9867;48.094;11.478;2023-06-14T03:03:41;94713.50;;;9.87;100.00
19457;BME280;9867;48.094;11.478;2023-06-14T03:06:10;94708.59;;;9.79;100.00
19457;BME280;9867;48.094;11.478;2023-06-14T03:08:42;94714.13;;;9.76;100.00
19457;BME280;9867;48.094;11.478;2023-06-14T03:11:14;94718.19;;;10.03;100.00
19457;BME280;9867;48.094;11.478;2023-06-14T03:13:43;94725.22;;;10.21;100.00
19457;BME280;9867;48.094;11.478;2023-06-14T03:16:12;94721.66;;;10.29;100.00
19457;BME280;9867;48.094;11.478;2023-06-14T03:18:40;94720.31;;;10.13;100.00
19457;BME280;9867;48.094;11.478;2023-06-14T03:21:10;94723.47;;;10.08;100.00
19457;BME280;9867;48.094;11.478;2023-06-14T03:23:41;94729.44;;;9.96;100.00
19457;BME280;9867;48.094;11.478;2023-06-14T03:26:10;94732.81;;;9.83;100.00
19457;BME280;9867;48.094;11.478;2023-06-14T03:28:41;94731.50;;;9.47;100.00
19457;BME280;9867;48.094;11.478;2023-06-14T03:31:09;94737.25;;;9.10;100.00
19457;BME280;9867;48.094;11.478;2023-06-14T03:33:37;94733.91;;;8.89;100.00
19457;BME280;9867;48.094;11.478;2023-06-14T03:36:06;94736.25;;;9.04;100.00
19457;BME280;9867;48.094;11.478;2023-06-14T03:38:35;94723.69;;;8.96;100.00
19457;BME280;9867;48.094;11.478;2023-06-14T03:41:04;94729.97;;;9.27;100.00
19457;BME280;9867;48.094;11.478;2023-06-14T03:43:32;94729.16;;;9.33;100.00
19457;BME280;9867;48.094;11.478;2023-06-14T03:46:01;94734.06;;;9.54;100.00
19457;BME280;9867;48.094;11.478;2023-06-14T03:48:31;94734.44;;;9.64;100.00
19457;BME280;9867;48.094;11.478;2023-06-14T03:51:01;94748.19;;;9.83;100.00
19457;BME280;9867;48.094;11.478;2023-06-14T03:53:29;94748.53;;;10.00;100.00
19457;BME280;9867;48.094;11.478;2023-06-14T03:55:59;94752.66;;;10.14;100.00
19457;BME280;9867;48.094;11.478;2023-06-14T03:58:36;94751.19;;;10.38;100.00
19457;BME280;9867;48.094;11.478;2023-06-14T04:01:05;94753.38;;;10.72;100.00
19457;BME280;9867;48.094;11.478;2023-06-14T04:03:33;94760.94;;;10.92;100.00
19457;BME280;9867;48.094;11.478;2023-06-14T04:06:02;94758.78;;;10.89;100.00
19457;BME280;9867;48.094;11.478;2023-06-14T04:08:31;94764.03;;;10.69;100.00
19457;BME280;9867;48.094;11.478;2023-06-14T04:11:00;94770.78;;;10.64;100.00
19457;BME280;9867;48.094;11.478;2023-06-14T04:13:28;94770.09;;;10.81;100.00
19457;BME280;9867;48.094;11.478;2023-06-14T04:15:56;94768.13;;;10.83;100.00
19457;BME280;9867;48.094;11.478;2023-06-14T04:18:31;94776.03;;;10.82;100.00
19457;BME280;9867;48.094;11.478;2023-06-14T04:20:59;94781.19;;;10.75;100.00
19457;BME280;9867;48.094;11.478;2023-06-14T04:23:28;94780.03;;;10.71;100.00
19457;BME280;9867;48.094;11.478;2023-06-14T04:25:57;94783.38;;;10.72;100.00
19457;BME280;9867;48.094;11.478;2023-06-14T04:28:30;94772.09;;;10.79;100.00
19457;BME280;9867;48.094;11.478;2023-06-14T04:31:01;94783.63;;;10.95;100.00
19457;BME280;9867;48.094;11.478;2023-06-14T04:33:31;94780.81;;;11.03;100.00
19457;BME280;9867;48.094;11.478;2023-06-14T04:35:59;94781.81;;;11.02;100.00
19457;BME280;9867;48.094;11.478;2023-06-14T04:38:27;94782.34;;;11.11;100.00
19457;BME280;9867;48.094;11.478;2023-06-14T04:40:56;94789.34;;;11.28;100.00
19457;BME280;9867;48.094;11.478;2023-06-14T04:43:29;94789.97;;;11.49;100.00
19457;BME280;9867;48.094;11.478;2023-06-14T04:45:58;94794.63;;;11.58;100.00
19457;BME280;9867;48.094;11.478;2023-06-14T04:48:29;94797.28;;;11.70;100.00
19457;BME280;9867;48.094;11.478;2023-06-14T04:50:58;94793.41;;;11.86;100.00
19457;BME280;9867;48.094;11.478;2023-06-14T04:53:25;94799.28;;;11.93;100.00
19457;BME280;9867;48.094;11.478;2023-06-14T04:55:56;94801.94;;;12.05;100.00
19457;BME280;9867;48.094;11.478;2023-06-14T04:58:25;94797.44;;;12.18;100.00
19457;BME280;9867;48.094;11.478;2023-06-14T05:00:54;94791.25;;;12.26;100.00
19457;BME280;9867;48.094;11.478;2023-06-14T05:03:23;94797.16;;;12.45;100.00
19457;BME280;9867;48.094;11.478;2023-06-14T05:05:51;94797.69;;;12.65;100.00
19457;BME280;9867;48.094;11.478;2023-06-14T05:08:20;94802.38;;;12.86;100.00
19457;BME280;9867;48.094;11.478;2023-06-14T05:10:50;94806.16;;;13.14;100.00
19457;BME280;9867;48.094;11.478;2023-06-14T05:13:18;94806.38;;;13.42;100.00
19457;BME280;9867;48.094;11.478;2023-06-14T05:15:46;94810.63;;;13.72;100.00
19457;BME280;9867;48.094;11.478;2023-06-14T05:18:15;94813.09;;;13.78;100.00
19457;BME280;9867;48.094;11.478;2023-06-14T05:20:43;94810.19;;;13.86;100.00
19457;BME280;9867;48.094;11.478;2023-06-14T05:23:11;94810.09;;;13.93;100.00
19457;BME280;9867;48.094;11.478;2023-06-14T05:25:42;94809.31;;;13.92;100.00
19457;BME280;9867;48.094;11.478;2023-06-14T05:28:11;94805.16;;;13.91;100.00
19457;BME280;9867;48.094;11.478;2023-06-14T05:30:39;94809.97;;;13.88;100.00
19457;BME280;9867;48.094;11.478;2023-06-14T05:33:07;94814.69;;;13.91;100.00
19457;BME280;9867;48.094;11.478;2023-06-14T05:35:37;94815.13;;;14.11;100.00
19457;BME280;9867;48.094;11.478;2023-06-14T05:38:05;94817.56;;;14.29;100.00
19457;BME280;9867;48.094;11.478;2023-06-14T05:40:34;94819.81;;;14.49;100.00
19457;BME280;9867;48.094;11.478;2023-06-14T05:43:02;94817.06;;;14.67;100.00
19457;BME280;9867;48.094;11.478;2023-06-14T05:45:30;94812.53;;;14.86;100.00
19457;BME280;9867;48.094;11.478;2023-06-14T05:47:57;94812.66;;;15.25;100.00
19457;BME280;9867;48.094;11.478;2023-06-14T05:50:26;94813.00;;;15.28;100.00
19457;BME280;9867;48.094;11.478;2023-06-14T05:52:55;94810.41;;;15.45;100.00
19457;BME280;9867;48.094;11.478;2023-06-14T05:55:23;94819.41;;;15.43;100.00
19457;BME280;9867;48.094;11.478;2023-06-14T05:57:51;94822.34;;;15.18;100.00
19457;BME280;9867;48.094;11.478;2023-06-14T06:00:20;94822.44;;;15.23;100.00
19457;BME280;9867;48.094;11.478;2023-06-14T06:02:48;94816.03;;;15.42;100.00
19457;BME280;9867;48.094;11.478;2023-06-14T06:05:16;94818.13;;;15.74;100.00
19457;BME280;9867;48.094;11.478;2023-06-14T06:07:45;94831.78;;;15.41;100.00
19457;BME280;9867;48.094;11.478;2023-06-14T06:10:16;94835.75;;;15.60;100.00
19457;BME280;9867;48.094;11.478;2023-06-14T06:12:43;94820.31;;;15.65;98.40
19457;BME280;9867;48.094;11.478;2023-06-14T06:15:14;94832.88;;;15.73;97.00
19457;BME280;9867;48.094;11.478;2023-06-14T06:17:43;94828.25;;;15.75;95.70
19457;BME280;9867;48.094;11.478;2023-06-14T06:20:22;94838.97;;;15.84;95.80
19457;BME280;9867;48.094;11.478;2023-06-14T06:22:56;94830.50;;;15.88;93.90
19457;BME280;9867;48.094;11.478;2023-06-14T06:25:26;94840.78;;;15.66;96.94
19457;BME280;9867;48.094;11.478;2023-06-14T06:27:55;94842.72;;;15.59;99.64
19457;BME280;9867;48.094;11.478;2023-06-14T06:30:24;94847.81;;;15.88;95.44
19457;BME280;9867;48.094;11.478;2023-06-14T06:32:52;94843.44;;;16.05;92.23
19457;BME280;9867;48.094;11.478;2023-06-14T06:35:20;94842.94;;;16.08;93.70
19457;BME280;9867;48.094;11.478;2023-06-14T06:37:48;94846.06;;;16.10;94.96
19457;BME280;9867;48.094;11.478;2023-06-14T06:40:16;94839.69;;;16.34;93.84
19457;BME280;9867;48.094;11.478;2023-06-14T06:42:45;94839.91;;;16.33;89.83
19457;BME280;9867;48.094;11.478;2023-06-14T06:45:13;94836.75;;;16.48;90.21
19457;BME280;9867;48.094;11.478;2023-06-14T06:47:42;94847.47;;;16.56;85.65
19457;BME280;9867;48.094;11.478;2023-06-14T06:50:10;94849.50;;;16.71;86.77
19457;BME280;9867;48.094;11.478;2023-06-14T06:52:37;94850.75;;;16.68;84.15
19457;BME280;9867;48.094;11.478;2023-06-14T06:55:06;94849.59;;;16.81;84.23
19457;BME280;9867;48.094;11.478;2023-06-14T06:57:35;94859.78;;;16.88;84.18
19457;BME280;9867;48.094;11.478;2023-06-14T07:00:29;94852.13;;;16.98;84.68
19457;BME280;9867;48.094;11.478;2023-06-14T07:02:57;94861.16;;;17.17;82.32
19457;BME280;9867;48.094;11.478;2023-06-14T07:05:25;94848.75;;;17.24;75.04
19457;BME280;9867;48.094;11.478;2023-06-14T07:07:53;94853.56;;;17.11;76.44
19457;BME280;9867;48.094;11.478;2023-06-14T07:10:23;94854.47;;;17.21;74.33
19457;BME280;9867;48.094;11.478;2023-06-14T07:12:53;94852.06;;;17.42;74.56
19457;BME280;9867;48.094;11.478;2023-06-14T07:15:21;94856.16;;;17.64;74.23
19457;BME280;9867;48.094;11.478;2023-06-14T07:17:50;94842.03;;;17.55;74.23
19457;BME280;9867;48.094;11.478;2023-06-14T07:20:19;94856.78;;;17.77;70.48
19457;BME280;9867;48.094;11.478;2023-06-14T07:22:50;94855.69;;;17.72;69.36
19457;BME280;9867;48.094;11.478;2023-06-14T07:25:18;94861.59;;;17.95;70.29
19457;BME280;9867;48.094;11.478;2023-06-14T07:27:46;94863.22;;;18.06;67.51
19457;BME280;9867;48.094;11.478;2023-06-14T07:30:14;94877.41;;;18.30;68.03
19457;BME280;9867;48.094;11.478;2023-06-14T07:32:42;94878.06;;;18.53;63.39
19457;BME280;9867;48.094;11.478;2023-06-14T07:35:12;94875.91;;;18.45;62.14
19457;BME280;9867;48.094;11.478;2023-06-14T07:37:40;94879.91;;;18.57;60.42
19457;BME280;9867;48.094;11.478;2023-06-14T07:40:09;94876.44;;;18.42;59.11
19457;BME280;9867;48.094;11.478;2023-06-14T07:42:37;94884.78;;;18.49;57.71
19457;BME280;9867;48.094;11.478;2023-06-14T07:45:05;94881.00;;;18.61;57.26
19457;BME280;9867;48.094;11.478;2023-06-14T07:47:34;94875.06;;;18.76;56.59
19457;BME280;9867;48.094;11.478;2023-06-14T07:50:02;94880.84;;;18.93;56.43
19457;BME280;9867;48.094;11.478;2023-06-14T07:52:33;94883.25;;;19.05;57.64
19457;BME280;9867;48.094;11.478;2023-06-14T07:55:01;94882.00;;;19.23;54.27
19457;BME280;9867;48.094;11.478;2023-06-14T07:57:28;94887.75;;;19.40;54.28
19457;BME280;9867;48.094;11.478;2023-06-14T07:59:56;94885.75;;;19.52;53.89
19457;BME280;9867;48.094;11.478;2023-06-14T08:02:25;94873.97;;;19.39;50.60
19457;BME280;9867;48.094;11.478;2023-06-14T08:04:53;94876.53;;;19.24;52.18
19457;BME280;9867;48.094;11.478;2023-06-14T08:07:20;94872.09;;;19.15;52.87
19457;BME280;9867;48.094;11.478;2023-06-14T08:09:50;94877.31;;;19.20;52.92
19457;BME280;9867;48.094;11.478;2023-06-14T08:12:17;94878.13;;;19.40;53.42
19457;BME280;9867;48.094;11.478;2023-06-14T08:14:45;94880.56;;;19.72;52.43
19457;BME280;9867;48.094;11.478;2023-06-14T08:17:20;94876.66;;;19.95;50.70
19457;BME280;9867;48.094;11.478;2023-06-14T08:19:48;94873.53;;;19.98;50.29
19457;BME280;9867;48.094;11.478;2023-06-14T08:22:17;94878.19;;;20.22;49.80
19457;BME280;9867;48.094;11.478;2023-06-14T08:24:46;94881.06;;;20.15;48.75
19457;BME280;9867;48.094;11.478;2023-06-14T08:27:15;94880.81;;;20.06;49.80
19457;BME280;9867;48.094;11.478;2023-06-14T08:29:43;94884.72;;;20.14;49.56
19457;BME280;9867;48.094;11.478;2023-06-14T08:32:11;94884.72;;;20.29;46.65
19457;BME280;9867;48.094;11.478;2023-06-14T08:34:39;94887.03;;;20.36;47.06
19457;BME280;9867;48.094;11.478;2023-06-14T08:37:15;94883.13;;;20.28;45.82
19457;BME280;9867;48.094;11.478;2023-06-14T08:39:43;94889.66;;;20.26;46.50
19457;BME280;9867;48.094;11.478;2023-06-14T08:42:12;94899.81;;;20.27;47.26
19457;BME280;9867;48.094;11.478;2023-06-14T08:44:58;94892.00;;;20.37;46.65
19457;BME280;9867;48.094;11.478;2023-06-14T08:47:27;94896.91;;;20.64;41.32
19457;BME280;9867;48.094;11.478;2023-06-14T08:49:58;94890.56;;;20.86;40.33
19457;BME280;9867;48.094;11.478;2023-06-14T08:52:28;94897.41;;;20.71;42.27
19457;BME280;9867;48.094;11.478;2023-06-14T08:55:00;94889.84;;;20.70;40.26
19457;BME280;9867;48.094;11.478;2023-06-14T08:57:29;94898.13;;;20.87;41.36
19457;BME280;9867;48.094;11.478;2023-06-14T08:59:59;94887.69;;;20.92;40.14
19457;BME280;9867;48.094;11.478;2023-06-14T09:02:36;94892.53;;;21.14;41.15
19457;BME280;9867;48.094;11.478;2023-06-14T09:05:05;94892.78;;;21.18;39.24
19457;BME280;9867;48.094;11.478;2023-06-14T09:07:33;94889.47;;;21.02;40.96
19457;BME280;9867;48.094;11.478;2023-06-14T09:10:07;94890.22;;;21.07;40.45
19457;BME280;9867;48.094;11.478;2023-06-14T09:12:35;94890.91;;;21.33;40.03
19457;BME280;9867;48.094;11.478;2023-06-14T09:15:05;94899.63;;;21.63;38.96
19457;BME280;9867;48.094;11.478;2023-06-14T09:17:35;94896.22;;;21.62;39.19
19457;BME280;9867;48.094;11.478;2023-06-14T09:20:04;94902.22;;;21.97;37.60
19457;BME280;9867;48.094;11.478;2023-06-14T09:22:36;94901.97;;;21.98;36.96
19457;BME280;9867;48.094;11.478;2023-06-14T09:25:05;94905.84;;;21.72;37.38
19457;BME280;9867;48.094;11.478;2023-06-14T09:27:34;94895.53;;;21.86;36.25
19457;BME280;9867;48.094;11.478;2023-06-14T09:30:05;94891.94;;;21.37;37.36
19457;BME280;9867;48.094;11.478;2023-06-14T09:32:36;94899.91;;;21.95;38.61
19457;BME280;9867;48.094;11.478;2023-06-14T09:35:06;94900.78;;;22.20;38.22
19457;BME280;9867;48.094;11.478;2023-06-14T09:37:34;94896.69;;;22.08;37.73
19457;BME280;9867;48.094;11.478;2023-06-14T09:40:05;94903.81;;;22.32;37.09
19457;BME280;9867;48.094;11.478;2023-06-14T09:42:33;94897.66;;;22.46;38.09
19457;BME280;9867;48.094;11.478;2023-06-14T09:45:04;94899.59;;;22.89;36.88
19457;BME280;9867;48.094;11.478;2023-06-14T09:47:32;94908.78;;;23.10;36.76
19457;BME280;9867;48.094;11.478;2023-06-14T09:50:00;94910.94;;;23.03;36.74
19457;BME280;9867;48.094;11.478;2023-06-14T09:52:29;94910.31;;;22.63;36.72
19457;BME280;9867;48.094;11.478;2023-06-14T09:54:59;94916.25;;;22.16;37.67
19457;BME280;9867;48.094;11.478;2023-06-14T09:57:27;94914.31;;;21.93;37.93
19457;BME280;9867;48.094;11.478;2023-06-14T10:00:01;94908.56;;;21.91;37.87
19457;BME280;9867;48.094;11.478;2023-06-14T10:03:00;94909.75;;;22.42;37.98
19457;BME280;9867;48.094;11.478;2023-06-14T10:05:31;94907.75;;;23.30;36.83
19457;BME280;9867;48.094;11.478;2023-06-14T10:08:03;94917.47;;;23.86;37.85
19457;BME280;9867;48.094;11.478;2023-06-14T10:10:32;94899.97;;;24.00;36.51
19457;BME280;9867;48.094;11.478;2023-06-14T10:13:00;94904.81;;;23.74;36.97
19457;BME280;9867;48.094;11.478;2023-06-14T10:15:34;94896.59;;;24.13;35.33
19457;BME280;9867;48.094;11.478;2023-06-14T10:18:08;94907.69;;;23.72;36.36
19457;BME280;9867;48.094;11.478;2023-06-14T10:20:45;94908.97;;;23.94;36.05
19457;BME280;9867;48.094;11.478;2023-06-14T10:23:18;94909.59;;;24.04;36.94
19457;BME280;9867;48.094;11.478;2023-06-14T10:25:49;94900.06;;;24.27;36.69
19457;BME280;9867;48.094;11.478;2023-06-14T10:28:19;94895.94;;;24.67;35.67
19457;BME280;9867;48.094;11.478;2023-06-14T10:31:05;94903.69;;;24.59;35.01
19457;BME280;9867;48.094;11.478;2023-06-14T10:33:35;94908.88;;;24.77;36.13
19457;BME280;9867;48.094;11.478;2023-06-14T10:36:24;94901.28;;;24.62;35.21
19457;BME280;9867;48.094;11.478;2023-06-14T10:38:58;94901.06;;;24.59;35.03
19457;BME280;9867;48.094;11.478;2023-06-14T10:41:26;94909.38;;;24.33;34.22
19457;BME280;9867;48.094;11.478;2023-06-14T10:47:00;94898.50;;;23.56;35.26
19457;BME280;9867;48.094;11.478;2023-06-14T10:49:39;94901.50;;;23.44;34.90
19457;BME280;9867;48.094;11.478;2023-06-14T10:52:12;94898.53;;;23.13;36.39
19457;BME280;9867;48.094;11.478;2023-06-14T10:55:07;94894.03;;;23.75;36.35
19457;BME280;9867;48.094;11.478;2023-06-14T10:57:42;94900.88;;;24.41;35.34
19457;BME280;9867;48.094;11.478;2023-06-14T11:00:19;94896.19;;;24.98;34.63
19457;BME280;9867;48.094;11.478;2023-06-14T11:03:21;94886.38;;;25.40;33.44
19457;BME280;9867;48.094;11.478;2023-06-14T11:05:58;94898.31;;;24.36;34.34
19457;BME280;9867;48.094;11.478;2023-06-14T11:09:19;94899.75;;;25.16;35.94
19457;BME280;9867;48.094;11.478;2023-06-14T11:11:48;94878.53;;;25.62;34.53
19457;BME280;9867;48.094;11.478;2023-06-14T11:14:16;94886.59;;;25.30;36.79
19457;BME280;9867;48.094;11.478;2023-06-14T11:16:48;94887.47;;;25.75;35.03
19457;BME280;9867;48.094;11.478;2023-06-14T11:19:16;94893.34;;;25.58;36.01
19457;BME280;9867;48.094;11.478;2023-06-14T11:21:48;94902.25;;;25.48;34.17
19457;BME280;9867;48.094;11.478;2023-06-14T11:24:16;94894.22;;;25.54;34.47
19457;BME280;9867;48.094;11.478;2023-06-14T11:26:47;94895.66;;;25.24;34.60
19457;BME280;9867;48.094;11.478;2023-06-14T11:29:15;94902.88;;;25.04;36.24
19457;BME280;9867;48.094;11.478;2023-06-14T11:31:44;94892.84;;;25.56;34.72
19457;BME280;9867;48.094;11.478;2023-06-14T11:34:13;94894.00;;;24.87;35.98
19457;BME280;9867;48.094;11.478;2023-06-14T11:36:42;94887.78;;;24.82;35.23
19457;BME280;9867;48.094;11.478;2023-06-14T11:39:11;94891.56;;;24.63;36.24
19457;BME280;9867;48.094;11.478;2023-06-14T11:41:41;94885.53;;;24.62;34.89
19457;BME280;9867;48.094;11.478;2023-06-14T11:44:10;94879.81;;;24.60;35.42
19457;BME280;9867;48.094;11.478;2023-06-14T11:46:39;94888.06;;;24.54;36.00
19457;BME280;9867;48.094;11.478;2023-06-14T11:49:07;94884.78;;;24.75;36.06
19457;BME280;9867;48.094;11.478;2023-06-14T11:51:36;94872.97;;;25.28;35.58
19457;BME280;9867;48.094;11.478;2023-06-14T11:54:06;94878.94;;;24.92;34.09
19457;BME280;9867;48.094;11.478;2023-06-14T11:56:36;94887.22;;;25.27;34.60
19457;BME280;9867;48.094;11.478;2023-06-14T11:59:04;94885.47;;;25.72;33.27
19457;BME280;9867;48.094;11.478;2023-06-14T12:01:36;94877.75;;;25.98;33.01
19457;BME280;9867;48.094;11.478;2023-06-14T12:04:06;94879.31;;;24.86;34.14
19457;BME280;9867;48.094;11.478;2023-06-14T12:06:34;94882.94;;;24.76;34.22
19457;BME280;9867;48.094;11.478;2023-06-14T12:09:06;94884.34;;;25.51;33.38
19457;BME280;9867;48.094;11.478;2023-06-14T12:11:40;94885.03;;;25.78;31.99
19457;BME280;9867;48.094;11.478;2023-06-14T12:14:09;94878.88;;;26.05;31.87
19457;BME280;9867;48.094;11.478;2023-06-14T12:16:39;94891.44;;;25.86;31.82
19457;BME280;9867;48.094;11.478;2023-06-14T12:19:11;94880.00;;;24.91;32.83
19457;BME280;9867;48.094;11.478;2023-06-14T12:21:40;94884.81;;;25.03;33.20
19457;BME280;9867;48.094;11.478;2023-06-14T12:24:08;94883.91;;;25.71;32.25
19457;BME280;9867;48.094;11.478;2023-06-14T12:26:41;94877.44;;;25.99;31.28
19457;BME280;9867;48.094;11.478;2023-06-14T12:29:09;94876.50;;;25.95;31.67
19457;BME280;9867;48.094;11.478;2023-06-14T12:31:39;94872.34;;;25.80;30.89
19457;BME280;9867;48.094;11.478;2023-06-14T12:34:07;94869.38;;;25.37;31.39
19457;BME280;9867;48.094;11.478;2023-06-14T12:36:36;94870.56;;;25.54;31.47
19457;BME280;9867;48.094;11.478;2023-06-14T12:39:08;94878.69;;;25.43;31.61
19457;BME280;9867;48.094;11.478;2023-06-14T12:41:36;94875.88;;;25.76;32.12
19457;BME280;9867;48.094;11.478;2023-06-14T12:44:06;94878.75;;;26.33;30.76
19457;BME280;9867;48.094;11.478;2023-06-14T12:46:34;94868.63;;;24.82;31.62
19457;BME280;9867;48.094;11.478;2023-06-14T12:49:03;94868.09;;;25.35;32.52
19457;BME280;9867;48.094;11.478;2023-06-14T12:51:32;94876.06;;;25.79;30.88
19457;BME280;9867;48.094;11.478;2023-06-14T12:54:00;94875.47;;;26.58;31.13
19457;BME280;9867;48.094;11.478;2023-06-14T12:56:27;94879.00;;;26.54;30.81
19457;BME280;9867;48.094;11.478;2023-06-14T12:58:56;94883.88;;;27.08;30.36
19457;BME280;9867;48.094;11.478;2023-06-14T13:01:26;94883.66;;;26.96;29.07
19457;BME280;9867;48.094;11.478;2023-06-14T13:03:54;94882.53;;;27.37;29.87
19457;BME280;9867;48.094;11.478;2023-06-14T13:06:22;94889.50;;;26.23;29.98
19457;BME280;9867;48.094;11.478;2023-06-14T13:08:51;94883.41;;;25.69;31.24
19457;BME280;9867;48.094;11.478;2023-06-14T13:11:21;94881.69;;;25.64;31.29
19457;BME280;9867;48.094;11.478;2023-06-14T13:13:49;94888.91;;;25.45;31.17